sensor_id;sensor_type;location;lat;lon;timestamp;P1;durP1;ratioP1;P2;durP2;ratioP2
65658;SDS011;60181;53.258;6.932;2024-02-23T00:00:10;4.90;;;0.60;;
65658;SDS011;60181;53.258;6.932;2024-02-23T00:04:21;4.90;;;0.60;;
65658;SDS011;60181;53.258;6.932;2024-02-23T00:08:33;4.90;;;0.60;;
65658;SDS011;60181;53.258;6.932;2024-02-23T00:12:45;3.20;;;0.80;;
65658;SDS011;60181;53.258;6.932;2024-02-23T00:16:57;3.20;;;0.80;;
65658;SDS011;60181;53.258;6.932;2024-02-23T00:21:09;3.00;;;0.50;;
65658;SDS011;60181;53.258;6.932;2024-02-23T00:25:21;3.00;;;0.50;;
65658;SDS011;60181;53.258;6.932;2024-02-23T00:29:33;4.00;;;0.50;;
65658;SDS011;60181;53.258;6.932;2024-02-23T00:33:45;4.00;;;0.50;;
65658;SDS011;60181;53.258;6.932;2024-02-23T00:37:57;4.00;;;0.50;;
65658;SDS011;60181;53.258;6.932;2024-02-23T00:42:09;4.40;;;0.60;;
65658;SDS011;60181;53.258;6.932;2024-02-23T00:46:21;4.40;;;0.60;;
65658;SDS011;60181;53.258;6.932;2024-02-23T00:50:33;5.80;;;0.50;;
65658;SDS011;60181;53.258;6.932;2024-02-23T00:54:45;5.80;;;0.50;;
65658;SDS011;60181;53.258;6.932;2024-02-23T00:58:57;5.80;;;0.50;;
65658;SDS011;60181;53.258;6.932;2024-02-23T01:03:09;3.90;;;0.60;;
65658;SDS011;60181;53.258;6.932;2024-02-23T01:07:21;3.90;;;0.60;;
65658;SDS011;60181;53.258;6.932;2024-02-23T01:11:33;5.70;;;0.60;;
65658;SDS011;60181;53.258;6.932;2024-02-23T01:15:45;5.70;;;0.60;;
65658;SDS011;60181;53.258;6.932;2024-02-23T01:19:57;6.80;;;0.70;;
65658;SDS011;60181;53.258;6.932;2024-02-23T01:24:09;6.80;;;0.70;;
65658;SDS011;60181;53.258;6.932;2024-02-23T01:28:21;6.80;;;0.70;;
65658;SDS011;60181;53.258;6.932;2024-02-23T01:32:33;6.10;;;0.70;;
65658;SDS011;60181;53.258;6.932;2024-02-23T01:36:45;6.10;;;0.70;;
65658;SDS011;60181;53.258;6.932;2024-02-23T01:40:57;4.80;;;1.00;;
65658;SDS011;60181;53.258;6.932;2024-02-23T01:45:09;4.80;;;1.00;;
65658;SDS011;60181;53.258;6.932;2024-02-23T01:49:21;3.40;;;0.90;;
65658;SDS011;60181;53.258;6.932;2024-02-23T01:53:33;3.40;;;0.90;;
65658;SDS011;60181;53.258;6.932;2024-02-23T01:57:45;3.40;;;0.90;;
65658;SDS011;60181;53.258;6.932;2024-02-23T02:01:57;4.80;;;0.80;;
65658;SDS011;60181;53.258;6.932;2024-02-23T02:06:09;4.80;;;0.80;;
65658;SDS011;60181;53.258;6.932;2024-02-23T02:10:21;6.00;;;0.90;;
65658;SDS011;60181;53.258;6.932;2024-02-23T02:14:33;6.00;;;0.90;;
65658;SDS011;60181;53.258;6.932;2024-02-23T02:18:45;6.00;;;0.90;;
65658;SDS011;60181;53.258;6.932;2024-02-23T02:22:57;4.00;;;0.90;;
65658;SDS011;60181;53.258;6.932;2024-02-23T02:27:09;4.00;;;0.90;;
65658;SDS011;60181;53.258;6.932;2024-02-23T02:31:21;8.60;;;1.30;;
65658;SDS011;60181;53.258;6.932;2024-02-23T02:35:33;8.60;;;1.30;;
65658;SDS011;60181;53.258;6.932;2024-02-23T02:39:45;4.20;;;0.80;;
65658;SDS011;60181;53.258;6.932;2024-02-23T02:43:57;4.20;;;0.80;;
65658;SDS011;60181;53.258;6.932;2024-02-23T02:48:09;4.20;;;0.80;;
65658;SDS011;60181;53.258;6.932;2024-02-23T02:52:21;7.10;;;1.10;;
65658;SDS011;60181;53.258;6.932;2024-02-23T02:56:33;7.10;;;1.10;;
65658;SDS011;60181;53.258;6.932;2024-02-23T03:00:45;6.70;;;1.20;;
65658;SDS011;60181;53.258;6.932;2024-02-23T03:04:57;6.70;;;1.20;;
65658;SDS011;60181;53.258;6.932;2024-02-23T03:09:09;9.40;;;1.30;;
65658;SDS011;60181;53.258;6.932;2024-02-23T03:13:21;9.40;;;1.30;;
65658;SDS011;60181;53.258;6.932;2024-02-23T03:17:33;9.40;;;1.30;;
65658;SDS011;60181;53.258;6.932;2024-02-23T03:21:45;15.90;;;1.40;;
65658;SDS011;60181;53.258;6.932;2024-02-23T03:25:57;15.90;;;1.40;;
65658;SDS011;60181;53.258;6.932;2024-02-23T03:30:10;10.20;;;1.40;;
65658;SDS011;60181;53.258;6.932;2024-02-23T03:34:21;10.20;;;1.40;;
65658;SDS011;60181;53.258;6.932;2024-02-23T03:38:33;10.20;;;1.40;;
65658;SDS011;60181;53.258;6.932;2024-02-23T03:42:45;11.50;;;1.50;;
65658;SDS011;60181;53.258;6.932;2024-02-23T03:46:57;11.50;;;1.50;;
65658;SDS011;60181;53.258;6.932;2024-02-23T03:51:09;6.00;;;1.30;;
65658;SDS011;60181;53.258;6.932;2024-02-23T03:55:21;6.00;;;1.30;;
65658;SDS011;60181;53.258;6.932;2024-02-23T03:59:35;14.00;;;1.70;;
65658;SDS011;60181;53.258;6.932;2024-02-23T04:03:45;14.00;;;1.70;;
65658;SDS011;60181;53.258;6.932;2024-02-23T04:07:57;14.00;;;1.70;;
65658;SDS011;60181;53.258;6.932;2024-02-23T04:12:09;12.90;;;1.80;;
65658;SDS011;60181;53.258;6.932;2024-02-23T04:16:24;12.90;;;1.80;;
65658;SDS011;60181;53.258;6.932;2024-02-23T04:20:33;9.40;;;1.40;;
65658;SDS011;60181;53.258;6.932;2024-02-23T04:24:45;9.40;;;1.40;;
65658;SDS011;60181;53.258;6.932;2024-02-23T04:28:57;9.40;;;1.40;;
65658;SDS011;60181;53.258;6.932;2024-02-23T04:33:09;6.70;;;1.40;;
65658;SDS011;60181;53.258;6.932;2024-02-23T04:37:21;6.70;;;1.40;;
65658;SDS011;60181;53.258;6.932;2024-02-23T04:41:33;11.60;;;1.60;;
65658;SDS011;60181;53.258;6.932;2024-02-23T04:45:45;11.60;;;1.60;;
65658;SDS011;60181;53.258;6.932;2024-02-23T04:49:57;10.40;;;1.30;;
65658;SDS011;60181;53.258;6.932;2024-02-23T04:54:09;10.40;;;1.30;;
65658;SDS011;60181;53.258;6.932;2024-02-23T04:58:21;10.40;;;1.30;;
65658;SDS011;60181;53.258;6.932;2024-02-23T05:02:33;8.50;;;1.30;;
65658;SDS011;60181;53.258;6.932;2024-02-23T05:06:45;8.50;;;1.30;;
65658;SDS011;60181;53.258;6.932;2024-02-23T05:10:57;9.30;;;1.40;;
65658;SDS011;60181;53.258;6.932;2024-02-23T05:15:09;9.30;;;1.40;;
65658;SDS011;60181;53.258;6.932;2024-02-23T05:19:21;10.10;;;1.40;;
65658;SDS011;60181;53.258;6.932;2024-02-23T05:23:33;10.10;;;1.40;;
65658;SDS011;60181;53.258;6.932;2024-02-23T05:27:45;10.10;;;1.40;;
65658;SDS011;60181;53.258;6.932;2024-02-23T05:31:57;10.70;;;1.50;;
65658;SDS011;60181;53.258;6.932;2024-02-23T05:36:09;10.70;;;1.50;;
65658;SDS011;60181;53.258;6.932;2024-02-23T05:40:21;10.80;;;1.80;;
65658;SDS011;60181;53.258;6.932;2024-02-23T05:44:33;10.80;;;1.80;;
65658;SDS011;60181;53.258;6.932;2024-02-23T05:48:45;10.80;;;1.80;;
65658;SDS011;60181;53.258;6.932;2024-02-23T05:52:57;7.90;;;1.20;;
65658;SDS011;60181;53.258;6.932;2024-02-23T05:57:09;7.90;;;1.20;;
65658;SDS011;60181;53.258;6.932;2024-02-23T06:01:21;10.10;;;1.50;;
65658;SDS011;60181;53.258;6.932;2024-02-23T06:05:33;10.10;;;1.50;;
65658;SDS011;60181;53.258;6.932;2024-02-23T06:09:45;9.40;;;2.00;;
65658;SDS011;60181;53.258;6.932;2024-02-23T06:13:57;9.40;;;2.00;;
65658;SDS011;60181;53.258;6.932;2024-02-23T06:18:09;9.40;;;2.00;;
65658;SDS011;60181;53.258;6.932;2024-02-23T06:22:21;9.80;;;2.20;;
65658;SDS011;60181;53.258;6.932;2024-02-23T06:26:33;9.80;;;2.20;;
65658;SDS011;60181;53.258;6.932;2024-02-23T06:30:45;10.30;;;2.40;;
65658;SDS011;60181;53.258;6.932;2024-02-23T06:34:57;10.30;;;2.40;;
65658;SDS011;60181;53.258;6.932;2024-02-23T06:39:09;11.90;;;3.20;;
65658;SDS011;60181;53.258;6.932;2024-02-23T06:43:21;11.90;;;3.20;;
65658;SDS011;60181;53.258;6.932;2024-02-23T06:47:33;11.90;;;3.20;;
65658;SDS011;60181;53.258;6.932;2024-02-23T06:51:45;15.60;;;3.00;;
65658;SDS011;60181;53.258;6.932;2024-02-23T06:55:57;15.60;;;3.00;;
65658;SDS011;60181;53.258;6.932;2024-02-23T07:00:09;11.70;;;2.60;;
65658;SDS011;60181;53.258;6.932;2024-02-23T07:04:21;11.70;;;2.60;;
65658;SDS011;60181;53.258;6.932;2024-02-23T07:08:33;11.70;;;2.60;;
65658;SDS011;60181;53.258;6.932;2024-02-23T07:12:45;7.80;;;2.10;;
65658;SDS011;60181;53.258;6.932;2024-02-23T07:16:57;7.80;;;2.10;;
65658;SDS011;60181;53.258;6.932;2024-02-23T07:21:09;6.60;;;2.10;;
65658;SDS011;60181;53.258;6.932;2024-02-23T07:25:21;6.60;;;2.10;;
65658;SDS011;60181;53.258;6.932;2024-02-23T07:29:33;6.40;;;1.80;;
65658;SDS011;60181;53.258;6.932;2024-02-23T07:33:45;6.40;;;1.80;;
65658;SDS011;60181;53.258;6.932;2024-02-23T07:37:57;6.40;;;1.80;;
65658;SDS011;60181;53.258;6.932;2024-02-23T07:42:09;4.40;;;1.40;;
65658;SDS011;60181;53.258;6.932;2024-02-23T07:46:21;4.40;;;1.40;;
65658;SDS011;60181;53.258;6.932;2024-02-23T07:50:33;7.20;;;1.40;;
65658;SDS011;60181;53.258;6.932;2024-02-23T07:54:45;7.20;;;1.40;;
65658;SDS011;60181;53.258;6.932;2024-02-23T07:58:57;7.20;;;1.40;;
65658;SDS011;60181;53.258;6.932;2024-02-23T08:03:09;4.70;;;1.40;;
65658;SDS011;60181;53.258;6.932;2024-02-23T08:07:21;4.70;;;1.40;;
65658;SDS011;60181;53.258;6.932;2024-02-23T08:11:33;5.20;;;1.40;;
65658;SDS011;60181;53.258;6.932;2024-02-23T08:15:45;5.20;;;1.40;;
65658;SDS011;60181;53.258;6.932;2024-02-23T08:19:57;4.00;;;1.30;;
65658;SDS011;60181;53.258;6.932;2024-02-23T08:24:09;4.00;;;1.30;;
65658;SDS011;60181;53.258;6.932;2024-02-23T08:28:21;4.00;;;1.30;;
65658;SDS011;60181;53.258;6.932;2024-02-23T08:32:33;3.90;;;1.20;;
65658;SDS011;60181;53.258;6.932;2024-02-23T08:36:45;3.90;;;1.20;;
65658;SDS011;60181;53.258;6.932;2024-02-23T08:40:57;3.10;;;1.30;;
65658;SDS011;60181;53.258;6.932;2024-02-23T08:45:09;3.10;;;1.30;;
65658;SDS011;60181;53.258;6.932;2024-02-23T08:49:21;2.70;;;1.20;;
65658;SDS011;60181;53.258;6.932;2024-02-23T08:53:33;2.70;;;1.20;;
65658;SDS011;60181;53.258;6.932;2024-02-23T08:57:45;2.70;;;1.20;;
65658;SDS011;60181;53.258;6.932;2024-02-23T09:01:57;3.50;;;1.00;;
65658;SDS011;60181;53.258;6.932;2024-02-23T09:06:09;3.50;;;1.00;;
65658;SDS011;60181;53.258;6.932;2024-02-23T09:10:21;2.90;;;1.00;;
65658;SDS011;60181;53.258;6.932;2024-02-23T09:14:33;2.90;;;1.00;;
65658;SDS011;60181;53.258;6.932;2024-02-23T09:18:45;2.90;;;1.00;;
65658;SDS011;60181;53.258;6.932;2024-02-23T09:22:57;3.20;;;1.00;;
65658;SDS011;60181;53.258;6.932;2024-02-23T09:27:09;3.20;;;1.00;;
65658;SDS011;60181;53.258;6.932;2024-02-23T09:31:21;2.80;;;1.00;;
65658;SDS011;60181;53.258;6.932;2024-02-23T09:35:33;2.80;;;1.00;;
65658;SDS011;60181;53.258;6.932;2024-02-23T09:39:45;14.80;;;1.90;;
65658;SDS011;60181;53.258;6.932;2024-02-23T09:43:58;14.80;;;1.90;;
65658;SDS011;60181;53.258;6.932;2024-02-23T09:48:08;14.80;;;1.90;;
65658;SDS011;60181;53.258;6.932;2024-02-23T09:52:21;8.10;;;1.20;;
65658;SDS011;60181;53.258;6.932;2024-02-23T09:56:32;8.10;;;1.20;;
65658;SDS011;60181;53.258;6.932;2024-02-23T10:00:44;4.60;;;1.20;;
65658;SDS011;60181;53.258;6.932;2024-02-23T10:04:56;4.60;;;1.20;;
65658;SDS011;60181;53.258;6.932;2024-02-23T10:09:08;4.10;;;1.00;;
65658;SDS011;60181;53.258;6.932;2024-02-23T10:13:21;4.10;;;1.00;;
65658;SDS011;60181;53.258;6.932;2024-02-23T10:17:33;4.10;;;1.00;;
65658;SDS011;60181;53.258;6.932;2024-02-23T10:21:45;4.80;;;0.90;;
65658;SDS011;60181;53.258;6.932;2024-02-23T10:25:56;4.80;;;0.90;;
65658;SDS011;60181;53.258;6.932;2024-02-23T10:30:09;3.80;;;0.90;;
65658;SDS011;60181;53.258;6.932;2024-02-23T10:34:21;3.80;;;0.90;;
65658;SDS011;60181;53.258;6.932;2024-02-23T10:38:32;3.80;;;0.90;;
65658;SDS011;60181;53.258;6.932;2024-02-23T10:42:45;5.10;;;0.80;;
65658;SDS011;60181;53.258;6.932;2024-02-23T10:46:58;5.10;;;0.80;;
65658;SDS011;60181;53.258;6.932;2024-02-23T10:51:08;4.20;;;0.90;;
65658;SDS011;60181;53.258;6.932;2024-02-23T10:55:20;4.20;;;0.90;;
65658;SDS011;60181;53.258;6.932;2024-02-23T10:59:32;4.60;;;0.90;;
65658;SDS011;60181;53.258;6.932;2024-02-23T11:03:44;4.60;;;0.90;;
65658;SDS011;60181;53.258;6.932;2024-02-23T11:07:56;4.60;;;0.90;;
65658;SDS011;60181;53.258;6.932;2024-02-23T11:12:08;4.00;;;0.90;;
65658;SDS011;60181;53.258;6.932;2024-02-23T11:16:21;4.00;;;0.90;;
65658;SDS011;60181;53.258;6.932;2024-02-23T11:20:36;1.80;;;0.70;;
65658;SDS011;60181;53.258;6.932;2024-02-23T11:24:44;1.80;;;0.70;;
65658;SDS011;60181;53.258;6.932;2024-02-23T11:28:56;1.80;;;0.70;;
65658;SDS011;60181;53.258;6.932;2024-02-23T11:33:08;3.00;;;0.90;;
65658;SDS011;60181;53.258;6.932;2024-02-23T11:37:20;3.00;;;0.90;;
65658;SDS011;60181;53.258;6.932;2024-02-23T11:41:32;4.80;;;1.10;;
65658;SDS011;60181;53.258;6.932;2024-02-23T11:45:46;4.80;;;1.10;;
65658;SDS011;60181;53.258;6.932;2024-02-23T11:49:56;3.40;;;0.90;;
65658;SDS011;60181;53.258;6.932;2024-02-23T11:54:08;3.40;;;0.90;;
65658;SDS011;60181;53.258;6.932;2024-02-23T11:58:20;3.40;;;0.90;;
65658;SDS011;60181;53.258;6.932;2024-02-23T12:02:33;2.90;;;1.00;;
65658;SDS011;60181;53.258;6.932;2024-02-23T12:06:44;2.90;;;1.00;;
65658;SDS011;60181;53.258;6.932;2024-02-23T12:10:56;2.70;;;0.80;;
65658;SDS011;60181;53.258;6.932;2024-02-23T12:15:09;2.70;;;0.80;;
65658;SDS011;60181;53.258;6.932;2024-02-23T12:19:20;2.50;;;0.80;;
65658;SDS011;60181;53.258;6.932;2024-02-23T12:23:41;2.50;;;0.80;;
65658;SDS011;60181;53.258;6.932;2024-02-23T12:27:44;2.50;;;0.80;;
65658;SDS011;60181;53.258;6.932;2024-02-23T12:32:03;2.60;;;0.80;;
65658;SDS011;60181;53.258;6.932;2024-02-23T12:36:10;2.60;;;0.80;;
65658;SDS011;60181;53.258;6.932;2024-02-23T12:40:20;3.30;;;0.70;;
65658;SDS011;60181;53.258;6.932;2024-02-23T12:44:32;3.30;;;0.70;;
65658;SDS011;60181;53.258;6.932;2024-02-23T12:48:44;3.30;;;0.70;;
65658;SDS011;60181;53.258;6.932;2024-02-23T12:52:56;3.60;;;0.80;;
65658;SDS011;60181;53.258;6.932;2024-02-23T12:57:08;3.60;;;0.80;;
65658;SDS011;60181;53.258;6.932;2024-02-23T13:01:20;2.00;;;0.70;;
65658;SDS011;60181;53.258;6.932;2024-02-23T13:05:32;2.00;;;0.70;;
65658;SDS011;60181;53.258;6.932;2024-02-23T13:09:44;2.00;;;0.80;;
65658;SDS011;60181;53.258;6.932;2024-02-23T13:13:56;2.00;;;0.80;;
65658;SDS011;60181;53.258;6.932;2024-02-23T13:18:08;2.00;;;0.80;;
65658;SDS011;60181;53.258;6.932;2024-02-23T13:22:20;1.90;;;0.80;;
65658;SDS011;60181;53.258;6.932;2024-02-23T13:26:32;1.90;;;0.80;;
65658;SDS011;60181;53.258;6.932;2024-02-23T13:30:44;2.70;;;0.90;;
65658;SDS011;60181;53.258;6.932;2024-02-23T13:34:56;2.70;;;0.90;;
65658;SDS011;60181;53.258;6.932;2024-02-23T13:39:08;1.20;;;0.70;;
65658;SDS011;60181;53.258;6.932;2024-02-23T13:43:20;1.20;;;0.70;;
65658;SDS011;60181;53.258;6.932;2024-02-23T13:47:32;1.20;;;0.70;;
65658;SDS011;60181;53.258;6.932;2024-02-23T13:51:44;1.90;;;0.70;;
65658;SDS011;60181;53.258;6.932;2024-02-23T13:55:56;1.90;;;0.70;;
65658;SDS011;60181;53.258;6.932;2024-02-23T14:00:09;1.50;;;0.80;;
65658;SDS011;60181;53.258;6.932;2024-02-23T14:04:20;1.50;;;0.80;;
65658;SDS011;60181;53.258;6.932;2024-02-23T14:08:32;1.50;;;0.80;;
65658;SDS011;60181;53.258;6.932;2024-02-23T14:12:44;2.20;;;0.70;;
65658;SDS011;60181;53.258;6.932;2024-02-23T14:16:56;2.20;;;0.70;;
65658;SDS011;60181;53.258;6.932;2024-02-23T14:21:08;1.60;;;0.60;;
65658;SDS011;60181;53.258;6.932;2024-02-23T14:25:20;1.60;;;0.60;;
65658;SDS011;60181;53.258;6.932;2024-02-23T14:29:32;1.80;;;0.70;;
65658;SDS011;60181;53.258;6.932;2024-02-23T14:33:44;1.80;;;0.70;;
65658;SDS011;60181;53.258;6.932;2024-02-23T14:37:56;1.80;;;0.70;;
65658;SDS011;60181;53.258;6.932;2024-02-23T14:42:08;3.30;;;0.70;;
65658;SDS011;60181;53.258;6.932;2024-02-23T14:46:20;3.30;;;0.70;;
65658;SDS011;60181;53.258;6.932;2024-02-23T14:50:32;2.20;;;0.90;;
65658;SDS011;60181;53.258;6.932;2024-02-23T14:54:44;2.20;;;0.90;;
65658;SDS011;60181;53.258;6.932;2024-02-23T14:58:56;2.20;;;0.90;;
65658;SDS011;60181;53.258;6.932;2024-02-23T15:03:08;3.50;;;0.80;;
65658;SDS011;60181;53.258;6.932;2024-02-23T15:07:20;3.50;;;0.80;;
65658;SDS011;60181;53.258;6.932;2024-02-23T15:11:32;2.50;;;0.80;;
65658;SDS011;60181;53.258;6.932;2024-02-23T15:15:44;2.50;;;0.80;;
65658;SDS011;60181;53.258;6.932;2024-02-23T15:19:56;1.80;;;0.80;;
65658;SDS011;60181;53.258;6.932;2024-02-23T15:24:08;1.80;;;0.80;;
65658;SDS011;60181;53.258;6.932;2024-02-23T15:28:20;1.80;;;0.80;;
65658;SDS011;60181;53.258;6.932;2024-02-23T15:32:32;3.00;;;0.80;;
65658;SDS011;60181;53.258;6.932;2024-02-23T15:36:44;3.00;;;0.80;;
65658;SDS011;60181;53.258;6.932;2024-02-23T15:40:56;2.70;;;0.60;;
65658;SDS011;60181;53.258;6.932;2024-02-23T15:45:08;2.70;;;0.60;;
65658;SDS011;60181;53.258;6.932;2024-02-23T15:49:20;1.50;;;0.70;;
65658;SDS011;60181;53.258;6.932;2024-02-23T15:53:32;1.50;;;0.70;;
65658;SDS011;60181;53.258;6.932;2024-02-23T15:57:44;1.50;;;0.70;;
65658;SDS011;60181;53.258;6.932;2024-02-23T16:01:56;1.40;;;0.90;;
65658;SDS011;60181;53.258;6.932;2024-02-23T16:06:08;1.40;;;0.90;;
65658;SDS011;60181;53.258;6.932;2024-02-23T16:10:20;2.50;;;0.60;;
65658;SDS011;60181;53.258;6.932;2024-02-23T16:14:32;2.50;;;0.60;;
65658;SDS011;60181;53.258;6.932;2024-02-23T16:18:44;2.50;;;0.60;;
65658;SDS011;60181;53.258;6.932;2024-02-23T16:22:56;2.10;;;0.70;;
65658;SDS011;60181;53.258;6.932;2024-02-23T16:27:08;2.10;;;0.70;;
65658;SDS011;60181;53.258;6.932;2024-02-23T16:31:20;1.50;;;0.60;;
65658;SDS011;60181;53.258;6.932;2024-02-23T16:35:32;1.50;;;0.60;;
65658;SDS011;60181;53.258;6.932;2024-02-23T16:39:44;1.90;;;0.70;;
65658;SDS011;60181;53.258;6.932;2024-02-23T16:43:56;1.90;;;0.70;;
65658;SDS011;60181;53.258;6.932;2024-02-23T16:48:08;1.90;;;0.70;;
65658;SDS011;60181;53.258;6.932;2024-02-23T16:52:20;1.60;;;0.70;;
65658;SDS011;60181;53.258;6.932;2024-02-23T16:56:32;1.60;;;0.70;;
65658;SDS011;60181;53.258;6.932;2024-02-23T17:00:44;4.60;;;0.80;;
65658;SDS011;60181;53.258;6.932;2024-02-23T17:04:56;4.60;;;0.80;;
65658;SDS011;60181;53.258;6.932;2024-02-23T17:09:08;2.50;;;0.90;;
65658;SDS011;60181;53.258;6.932;2024-02-23T17:13:20;2.50;;;0.90;;
65658;SDS011;60181;53.258;6.932;2024-02-23T17:17:32;2.50;;;0.90;;
65658;SDS011;60181;53.258;6.932;2024-02-23T17:21:44;3.90;;;1.20;;
65658;SDS011;60181;53.258;6.932;2024-02-23T17:25:56;3.90;;;1.20;;
65658;SDS011;60181;53.258;6.932;2024-02-23T17:30:08;10.50;;;2.00;;
65658;SDS011;60181;53.258;6.932;2024-02-23T17:34:20;10.50;;;2.00;;
65658;SDS011;60181;53.258;6.932;2024-02-23T17:38:32;10.50;;;2.00;;
65658;SDS011;60181;53.258;6.932;2024-02-23T17:42:44;13.20;;;2.90;;
65658;SDS011;60181;53.258;6.932;2024-02-23T17:46:56;13.20;;;2.90;;
65658;SDS011;60181;53.258;6.932;2024-02-23T17:51:08;19.90;;;3.30;;
65658;SDS011;60181;53.258;6.932;2024-02-23T17:55:20;19.90;;;3.30;;
65658;SDS011;60181;53.258;6.932;2024-02-23T17:59:32;51.00;;;8.60;;
65658;SDS011;60181;53.258;6.932;2024-02-23T18:03:44;51.00;;;8.60;;
65658;SDS011;60181;53.258;6.932;2024-02-23T18:07:59;51.00;;;8.60;;
65658;SDS011;60181;53.258;6.932;2024-02-23T18:12:08;48.20;;;10.20;;
65658;SDS011;60181;53.258;6.932;2024-02-23T18:16:20;48.20;;;10.20;;
65658;SDS011;60181;53.258;6.932;2024-02-23T18:20:32;48.00;;;8.90;;
65658;SDS011;60181;53.258;6.932;2024-02-23T18:24:44;48.00;;;8.90;;
65658;SDS011;60181;53.258;6.932;2024-02-23T18:28:56;48.00;;;8.90;;
65658;SDS011;60181;53.258;6.932;2024-02-23T18:33:08;37.20;;;8.00;;
65658;SDS011;60181;53.258;6.932;2024-02-23T18:37:20;37.20;;;8.00;;
65658;SDS011;60181;53.258;6.932;2024-02-23T18:41:32;45.30;;;8.30;;
65658;SDS011;60181;53.258;6.932;2024-02-23T18:45:44;45.30;;;8.30;;
65658;SDS011;60181;53.258;6.932;2024-02-23T18:49:56;33.20;;;7.60;;
65658;SDS011;60181;53.258;6.932;2024-02-23T18:54:08;33.20;;;7.60;;
65658;SDS011;60181;53.258;6.932;2024-02-23T18:58:20;33.20;;;7.60;;
65658;SDS011;60181;53.258;6.932;2024-02-23T19:02:32;38.90;;;7.80;;
65658;SDS011;60181;53.258;6.932;2024-02-23T19:06:44;38.90;;;7.80;;
65658;SDS011;60181;53.258;6.932;2024-02-23T19:10:56;36.80;;;7.60;;
65658;SDS011;60181;53.258;6.932;2024-02-23T19:15:08;36.80;;;7.60;;
65658;SDS011;60181;53.258;6.932;2024-02-23T19:19:20;35.80;;;7.70;;
65658;SDS011;60181;53.258;6.932;2024-02-23T19:23:32;35.80;;;7.70;;
65658;SDS011;60181;53.258;6.932;2024-02-23T19:27:44;35.80;;;7.70;;
65658;SDS011;60181;53.258;6.932;2024-02-23T19:31:56;36.70;;;7.20;;
65658;SDS011;60181;53.258;6.932;2024-02-23T19:36:08;36.70;;;7.20;;
65658;SDS011;60181;53.258;6.932;2024-02-23T19:40:20;31.30;;;6.80;;
65658;SDS011;60181;53.258;6.932;2024-02-23T19:44:32;31.30;;;6.80;;
65658;SDS011;60181;53.258;6.932;2024-02-23T19:48:44;31.30;;;6.80;;
65658;SDS011;60181;53.258;6.932;2024-02-23T19:52:56;28.60;;;6.90;;
65658;SDS011;60181;53.258;6.932;2024-02-23T19:57:08;28.60;;;6.90;;
65658;SDS011;60181;53.258;6.932;2024-02-23T20:01:20;31.50;;;6.60;;
65658;SDS011;60181;53.258;6.932;2024-02-23T20:05:32;31.50;;;6.60;;
65658;SDS011;60181;53.258;6.932;2024-02-23T20:09:44;23.80;;;6.00;;
65658;SDS011;60181;53.258;6.932;2024-02-23T20:13:56;23.80;;;6.00;;
65658;SDS011;60181;53.258;6.932;2024-02-23T20:18:08;23.80;;;6.00;;
65658;SDS011;60181;53.258;6.932;2024-02-23T20:22:20;25.90;;;5.50;;
65658;SDS011;60181;53.258;6.932;2024-02-23T20:26:32;25.90;;;5.50;;
65658;SDS011;60181;53.258;6.932;2024-02-23T20:30:44;20.60;;;5.50;;
65658;SDS011;60181;53.258;6.932;2024-02-23T20:34:56;20.60;;;5.50;;
65658;SDS011;60181;53.258;6.932;2024-02-23T20:39:08;21.70;;;5.50;;
65658;SDS011;60181;53.258;6.932;2024-02-23T20:43:20;21.70;;;5.50;;
65658;SDS011;60181;53.258;6.932;2024-02-23T20:47:32;21.70;;;5.50;;
65658;SDS011;60181;53.258;6.932;2024-02-23T20:51:44;20.50;;;4.70;;
65658;SDS011;60181;53.258;6.932;2024-02-23T20:55:56;20.50;;;4.70;;
65658;SDS011;60181;53.258;6.932;2024-02-23T21:00:08;21.70;;;5.20;;
65658;SDS011;60181;53.258;6.932;2024-02-23T21:04:20;21.70;;;5.20;;
65658;SDS011;60181;53.258;6.932;2024-02-23T21:08:32;21.70;;;5.20;;
65658;SDS011;60181;53.258;6.932;2024-02-23T21:12:44;18.80;;;5.20;;
65658;SDS011;60181;53.258;6.932;2024-02-23T21:16:56;18.80;;;5.20;;
65658;SDS011;60181;53.258;6.932;2024-02-23T21:21:08;15.60;;;4.20;;
65658;SDS011;60181;53.258;6.932;2024-02-23T21:25:20;15.60;;;4.20;;
65658;SDS011;60181;53.258;6.932;2024-02-23T21:29:32;19.20;;;3.70;;
65658;SDS011;60181;53.258;6.932;2024-02-23T21:33:44;19.20;;;3.70;;
65658;SDS011;60181;53.258;6.932;2024-02-23T21:37:56;19.20;;;3.70;;
65658;SDS011;60181;53.258;6.932;2024-02-23T21:42:08;11.20;;;3.30;;
65658;SDS011;60181;53.258;6.932;2024-02-23T21:46:20;11.20;;;3.30;;
65658;SDS011;60181;53.258;6.932;2024-02-23T21:50:32;13.50;;;3.20;;
65658;SDS011;60181;53.258;6.932;2024-02-23T21:54:44;13.50;;;3.20;;
65658;SDS011;60181;53.258;6.932;2024-02-23T21:58:56;13.50;;;3.20;;
65658;SDS011;60181;53.258;6.932;2024-02-23T22:03:07;9.30;;;2.70;;
65658;SDS011;60181;53.258;6.932;2024-02-23T22:07:20;9.30;;;2.70;;
65658;SDS011;60181;53.258;6.932;2024-02-23T22:11:31;7.00;;;2.70;;
65658;SDS011;60181;53.258;6.932;2024-02-23T22:15:43;7.00;;;2.70;;
65658;SDS011;60181;53.258;6.932;2024-02-23T22:19:56;8.80;;;2.70;;
65658;SDS011;60181;53.258;6.932;2024-02-23T22:24:07;8.80;;;2.70;;
65658;SDS011;60181;53.258;6.932;2024-02-23T22:28:19;8.80;;;2.70;;
65658;SDS011;60181;53.258;6.932;2024-02-23T22:32:31;9.30;;;2.80;;
65658;SDS011;60181;53.258;6.932;2024-02-23T22:36:43;9.30;;;2.80;;
65658;SDS011;60181;53.258;6.932;2024-02-23T22:40:55;9.70;;;3.00;;
65658;SDS011;60181;53.258;6.932;2024-02-23T22:45:08;9.70;;;3.00;;
65658;SDS011;60181;53.258;6.932;2024-02-23T22:49:19;13.40;;;3.30;;
65658;SDS011;60181;53.258;6.932;2024-02-23T22:53:31;13.40;;;3.30;;
65658;SDS011;60181;53.258;6.932;2024-02-23T22:57:43;13.40;;;3.30;;
65658;SDS011;60181;53.258;6.932;2024-02-23T23:01:55;9.10;;;3.10;;
65658;SDS011;60181;53.258;6.932;2024-02-23T23:06:07;9.10;;;3.10;;
65658;SDS011;60181;53.258;6.932;2024-02-23T23:10:19;10.40;;;3.10;;
65658;SDS011;60181;53.258;6.932;2024-02-23T23:14:31;10.40;;;3.10;;
65658;SDS011;60181;53.258;6.932;2024-02-23T23:18:43;10.40;;;3.10;;
65658;SDS011;60181;53.258;6.932;2024-02-23T23:22:55;9.40;;;2.80;;
65658;SDS011;60181;53.258;6.932;2024-02-23T23:27:07;9.40;;;2.80;;
65658;SDS011;60181;53.258;6.932;2024-02-23T23:31:19;15.00;;;2.90;;
65658;SDS011;60181;53.258;6.932;2024-02-23T23:35:31;15.00;;;2.90;;
65658;SDS011;60181;53.258;6.932;2024-02-23T23:39:43;13.40;;;3.00;;
65658;SDS011;60181;53.258;6.932;2024-02-23T23:43:55;13.40;;;3.00;;
65658;SDS011;60181;53.258;6.932;2024-02-23T23:48:07;13.40;;;3.00;;
65658;SDS011;60181;53.258;6.932;2024-02-23T23:52:19;7.40;;;2.90;;
65658;SDS011;60181;53.258;6.932;2024-02-23T23:56:31;7.40;;;2.90;;
